createdAt,value
2023-01-12T00:00:02.760Z,0.00
2023-01-12T00:10:01.491Z,0.00
2023-01-12T00:20:01.243Z,0.00
2023-01-12T00:30:01.353Z,0.00
2023-01-12T00:40:02.730Z,0.00
2023-01-12T00:50:01.925Z,0.00
2023-01-12T01:00:01.471Z,0.00
2023-01-12T01:10:02.999Z,0.00
2023-01-12T01:20:01.005Z,0.00
2023-01-12T01:30:01.548Z,0.00
2023-01-12T01:40:00.971Z,0.00
2023-01-12T01:50:01.288Z,0.00
2023-01-12T02:00:01.019Z,0.00
2023-01-12T02:10:02.115Z,0.00
2023-01-12T02:20:03.497Z,0.00
2023-01-12T02:30:01.110Z,0.00
2023-01-12T02:40:01.018Z,0.00
2023-01-12T02:50:00.209Z,0.00
2023-01-12T03:00:01.157Z,0.00
2023-01-12T03:10:02.161Z,0.00
2023-01-12T03:20:01.040Z,0.00
2023-01-12T03:30:01.020Z,0.00
2023-01-12T03:40:01.058Z,0.00
2023-01-12T03:50:01.090Z,0.00
2023-01-12T04:00:01.025Z,0.00
2023-01-12T04:10:00.202Z,0.00
2023-01-12T04:20:01.905Z,0.00
2023-01-12T04:30:02.157Z,0.00
2023-01-12T04:40:01.836Z,0.00
2023-01-12T04:50:01.083Z,0.00
2023-01-12T05:00:01.298Z,0.00
2023-01-12T05:10:01.264Z,0.00
2023-01-12T05:20:01.969Z,0.00
2023-01-12T05:30:02.347Z,0.00
2023-01-12T05:40:01.881Z,0.00
2023-01-12T05:50:01.494Z,0.00
2023-01-12T06:00:00.974Z,0.00
2023-01-12T06:10:01.281Z,0.00
2023-01-12T06:20:00.970Z,0.00
2023-01-12T06:30:01.083Z,0.11
2023-01-12T06:40:01.236Z,1.02
2023-01-12T06:50:00.208Z,5.09
2023-01-12T07:00:01.078Z,8.33
2023-01-12T07:10:01.346Z,33.33
2023-01-12T07:20:00.995Z,121.25
2023-01-12T07:30:01.601Z,143.33
2023-01-12T07:40:01.239Z,225.00
2023-01-12T08:00:00.993Z,651.25
2023-01-12T08:10:02.139Z,920.00
2023-01-12T08:20:02.345Z,759.17
2023-01-12T08:30:01.139Z,1191.67
2023-01-12T08:40:01.920Z,516.67
2023-01-12T08:50:01.276Z,896.67
2023-01-12T09:00:03.917Z,1669.58
2023-01-12T09:10:01.054Z,981.67
2023-01-12T09:20:01.123Z,1659.58
2023-01-12T09:30:01.114Z,1767.92
2023-01-12T09:40:01.277Z,3109.17
2023-01-12T09:50:08.927Z,2028.33
2023-01-12T10:00:02.239Z,1403.33
2023-01-12T10:10:01.018Z,2176.67
2023-01-12T10:20:01.359Z,1406.67
2023-01-12T10:30:02.172Z,1543.33
2023-01-12T10:40:02.324Z,2035.00
2023-01-12T10:50:01.369Z,1548.33
2023-01-12T11:00:01.849Z,1143.33
2023-01-12T11:10:02.141Z,1003.33
2023-01-12T11:20:01.465Z,1280.42
2023-01-12T11:30:02.047Z,731.67
2023-01-12T11:40:00.190Z,1081.25
2023-01-12T11:50:01.367Z,1328.33
2023-01-12T12:00:01.481Z,875.00
2023-01-12T12:10:01.341Z,2100.42
2023-01-12T12:20:01.093Z,900.00
2023-01-12T12:30:01.026Z,1174.17
2023-01-12T12:40:00.192Z,1236.67
2023-01-12T12:50:02.284Z,683.33
2023-01-12T13:00:01.338Z,1560.42
2023-01-12T13:10:01.105Z,735.00
2023-01-12T13:20:06.347Z,680.00
2023-01-12T13:30:01.281Z,606.67
2023-01-12T13:40:01.538Z,501.67
2023-01-12T13:50:02.703Z,385.00
2023-01-12T14:00:01.104Z,800.83
2023-01-12T14:10:01.129Z,235.00
2023-01-12T14:20:01.189Z,329.17
2023-01-12T14:30:02.610Z,226.67
2023-01-12T14:40:02.595Z,320.00
2023-01-12T14:50:01.053Z,332.50
2023-01-12T15:00:01.792Z,88.33
2023-01-12T15:10:01.160Z,38.33
2023-01-12T15:20:03.604Z,18.33
2023-01-12T15:30:01.077Z,17.50
2023-01-12T15:40:01.049Z,5.32
2023-01-12T15:50:01.919Z,0.68
2023-01-12T16:00:03.131Z,0.23
2023-01-12T16:10:02.252Z,0.11
2023-01-12T16:20:01.032Z,0.00
2023-01-12T16:30:01.640Z,0.00
2023-01-12T16:40:01.230Z,0.00
2023-01-12T16:50:00.363Z,0.11
2023-01-12T17:00:01.102Z,0.00
2023-01-12T17:10:01.108Z,0.00
2023-01-12T17:20:01.431Z,0.11
2023-01-12T17:30:02.170Z,0.11
2023-01-12T17:40:01.042Z,0.00
2023-01-12T17:50:01.040Z,0.11
2023-01-12T18:00:02.937Z,0.00
2023-01-12T18:10:01.312Z,0.00
2023-01-12T18:20:01.265Z,0.00
2023-01-12T18:30:01.113Z,0.00
2023-01-12T18:40:02.139Z,0.00
2023-01-12T18:50:01.968Z,0.23
2023-01-12T19:00:02.946Z,0.00
2023-01-12T19:10:02.109Z,0.00
2023-01-12T19:20:02.363Z,0.00
2023-01-12T19:30:01.433Z,0.00
2023-01-12T19:40:01.506Z,0.00
2023-01-12T19:50:01.081Z,0.00
2023-01-12T20:00:01.040Z,0.00
2023-01-12T20:10:01.133Z,0.00
2023-01-12T20:20:01.203Z,0.00
2023-01-12T20:30:01.555Z,0.00
2023-01-12T20:40:01.043Z,0.00
2023-01-12T20:50:03.321Z,0.00
2023-01-12T21:00:01.968Z,0.00
2023-01-12T21:10:02.220Z,0.00
2023-01-12T21:20:03.364Z,0.00
2023-01-12T21:30:03.232Z,0.00
2023-01-12T21:40:03.435Z,0.00
2023-01-12T21:50:02.985Z,0.00
2023-01-12T22:00:01.062Z,0.00
2023-01-12T22:10:01.789Z,0.00
2023-01-12T22:20:02.388Z,0.00
2023-01-12T22:30:01.574Z,0.00
2023-01-12T22:40:01.468Z,0.00
2023-01-12T22:50:00.243Z,0.00
2023-01-12T23:00:02.359Z,0.00
2023-01-12T23:10:01.085Z,0.00
2023-01-12T23:20:00.220Z,0.00
2023-01-12T23:30:01.368Z,0.00
2023-01-12T23:40:01.559Z,0.00
2023-01-12T23:50:02.013Z,0.00
